createdAt,value
2022-12-20T00:03:22.011Z,48.97
2022-12-20T00:08:24.774Z,45.63
2022-12-20T00:13:27.616Z,45.15
2022-12-20T00:18:31.715Z,47.47
2022-12-20T00:23:35.353Z,41.47
2022-12-20T00:28:39.668Z,47.90
2022-12-20T00:33:46.520Z,45.67
2022-12-20T00:38:51.100Z,49.88
2022-12-20T00:43:54.239Z,49.63
2022-12-20T00:48:58.747Z,49.80
2022-12-20T00:54:01.386Z,45.42
2022-12-20T00:59:04.085Z,51.10
2022-12-20T01:04:06.798Z,46.42
2022-12-20T01:09:11.624Z,42.87
2022-12-20T01:14:16.380Z,39.17
2022-12-20T01:19:19.408Z,51.00
2022-12-20T01:24:22.065Z,51.00
2022-12-20T01:29:24.880Z,52.78
2022-12-20T01:34:27.553Z,48.97
2022-12-20T01:39:30.256Z,48.50
2022-12-20T01:44:32.798Z,47.25
2022-12-20T01:49:43.245Z,50.67
2022-12-20T01:54:48.942Z,46.53
2022-12-20T01:59:52.851Z,44.77
2022-12-20T02:04:56.300Z,45.28
2022-12-20T02:10:01.210Z,45.90
2022-12-20T02:15:22.721Z,43.07
2022-12-20T02:20:37.363Z,63.05
2022-12-20T02:26:20.039Z,55.30
2022-12-20T02:31:32.486Z,49.90
2022-12-20T02:36:36.443Z,50.00
2022-12-20T02:41:45.882Z,53.57
2022-12-20T02:46:49.375Z,59.22
2022-12-20T02:51:54.610Z,55.40
2022-12-20T02:57:02.988Z,50.65
2022-12-20T03:02:06.660Z,50.05
2022-12-20T03:07:13.058Z,48.40
2022-12-20T03:12:16.389Z,50.30
2022-12-20T03:17:19.370Z,50.40
2022-12-20T03:22:23.639Z,46.28
2022-12-20T03:27:28.392Z,45.67
2022-12-20T03:32:32.892Z,49.33
2022-12-20T03:37:35.611Z,55.90
2022-12-20T03:42:40.536Z,44.17
2022-12-20T03:47:43.458Z,54.00
2022-12-20T03:52:46.681Z,57.88
2022-12-20T03:57:49.393Z,48.90
2022-12-20T04:03:03.172Z,50.80
2022-12-20T04:08:06.584Z,45.80
2022-12-20T04:13:09.304Z,54.75
2022-12-20T04:18:12.379Z,47.53
2022-12-20T04:23:15.625Z,58.57
2022-12-20T04:28:18.576Z,60.60
2022-12-20T04:33:21.291Z,53.13
2022-12-20T04:38:24.273Z,51.80
2022-12-20T04:43:29.272Z,49.63
2022-12-20T04:48:56.363Z,53.57
2022-12-20T04:53:58.241Z,44.67
2022-12-20T04:59:21.060Z,50.40
2022-12-20T05:04:31.601Z,26.83
2022-12-20T05:09:37.853Z,46.47
2022-12-20T05:14:41.235Z,46.07
2022-12-20T05:19:44.703Z,51.65
2022-12-20T05:25:07.484Z,46.60
2022-12-20T05:30:13.954Z,47.05
2022-12-20T05:35:17.179Z,36.70
2022-12-20T05:40:23.696Z,31.53
2022-12-20T05:45:26.859Z,37.95
2022-12-20T05:50:36.150Z,32.67
2022-12-20T05:55:57.511Z,20.08
2022-12-20T06:01:10.674Z,15.40
2022-12-20T06:06:15.495Z,12.50
2022-12-20T06:11:27.643Z,10.52
2022-12-20T06:16:38.539Z,9.80
2022-12-20T06:21:43.204Z,9.38
2022-12-20T06:26:48.944Z,9.55
2022-12-20T06:31:53.619Z,8.73
2022-12-20T06:36:56.371Z,6.90
2022-12-20T06:42:02.200Z,8.77
2022-12-20T06:47:05.271Z,11.75
2022-12-20T06:52:08.099Z,8.73
2022-12-20T06:57:30.431Z,9.63
2022-12-20T07:02:33.278Z,8.02
2022-12-20T07:07:42.797Z,8.07
2022-12-20T07:12:48.353Z,7.82
2022-12-20T07:17:52.149Z,8.07
2022-12-20T07:22:54.959Z,8.57
2022-12-20T07:27:57.982Z,8.60
2022-12-20T07:33:00.647Z,8.47
2022-12-20T07:38:03.444Z,10.40
2022-12-20T07:43:06.362Z,9.50
2022-12-20T07:48:13.777Z,7.57
2022-12-20T07:53:18.270Z,9.57
2022-12-20T07:58:22.076Z,9.13
2022-12-20T08:03:32.131Z,10.32
2022-12-20T08:08:39.021Z,8.57
2022-12-20T08:13:46.268Z,9.47
2022-12-20T08:18:49.787Z,10.70
2022-12-20T08:23:53.084Z,10.17
2022-12-20T08:28:56.594Z,10.55
2022-12-20T08:33:59.385Z,9.40
2022-12-20T08:39:06.572Z,11.20
2022-12-20T08:44:11.405Z,9.80
2022-12-20T08:49:14.314Z,9.03
2022-12-20T08:54:17.876Z,10.75
2022-12-20T08:59:20.675Z,11.07
2022-12-20T09:04:23.551Z,10.30
2022-12-20T09:09:26.298Z,10.57
2022-12-20T09:14:29.061Z,12.30
2022-12-20T09:19:31.888Z,11.68
2022-12-20T09:24:34.591Z,11.40
2022-12-20T09:29:37.291Z,11.47
2022-12-20T09:34:40.015Z,14.40
2022-12-20T09:39:42.822Z,11.23
2022-12-20T09:44:45.491Z,12.98
2022-12-20T09:49:50.965Z,14.43
2022-12-20T09:55:18.787Z,14.97
2022-12-20T10:00:22.265Z,15.15
2022-12-20T10:05:49.911Z,13.57
2022-12-20T10:11:14.269Z,13.88
2022-12-20T10:16:37.456Z,13.60
2022-12-20T10:21:48.363Z,15.43
2022-12-20T10:26:51.990Z,13.90
2022-12-20T10:32:01.042Z,12.13
2022-12-20T10:37:16.258Z,14.05
2022-12-20T10:42:40.918Z,12.02
2022-12-20T10:47:46.610Z,12.47
2022-12-20T10:53:11.172Z,11.85
2022-12-20T10:58:14.255Z,12.93
2022-12-20T11:03:22.898Z,11.05
2022-12-20T11:08:41.303Z,13.15
2022-12-20T11:13:52.171Z,13.30
2022-12-20T11:19:12.980Z,8.35
2022-12-20T11:24:44.590Z,13.33
2022-12-20T11:30:33.704Z,14.20
2022-12-20T11:36:07.463Z,14.57
2022-12-20T11:41:33.321Z,14.60
2022-12-20T11:46:47.940Z,13.50
2022-12-20T11:52:00.757Z,12.13
2022-12-20T11:57:19.011Z,12.75
2022-12-20T12:02:44.220Z,12.02
2022-12-20T12:07:54.864Z,13.20
2022-12-20T12:13:23.936Z,12.13
2022-12-20T12:18:34.786Z,12.63
2022-12-20T12:24:02.104Z,10.82
2022-12-20T12:29:13.331Z,11.77
2022-12-20T12:34:22.282Z,12.37
2022-12-20T12:39:49.740Z,12.73
2022-12-20T12:45:07.110Z,12.07
2022-12-20T12:50:24.782Z,14.20
2022-12-20T12:55:43.384Z,13.65
2022-12-20T13:00:53.018Z,13.20
2022-12-20T13:05:55.838Z,14.13
2022-12-20T13:11:00.660Z,14.37
2022-12-20T13:16:11.167Z,14.75
2022-12-20T13:21:29.858Z,16.92
2022-12-20T13:26:54.853Z,15.43
2022-12-20T13:31:57.909Z,15.27
2022-12-20T13:37:00.687Z,15.63
2022-12-20T13:42:31.245Z,14.25
2022-12-20T13:47:46.992Z,16.63
2022-12-20T13:52:50.996Z,17.20
2022-12-20T13:57:55.226Z,16.55
2022-12-20T14:02:58.425Z,18.30
2022-12-20T14:08:07.734Z,16.02
2022-12-20T14:13:27.385Z,17.77
2022-12-20T14:18:30.098Z,16.70
2022-12-20T14:23:41.765Z,15.77
2022-12-20T14:28:49.865Z,14.40
2022-12-20T14:34:01.917Z,16.45
2022-12-20T14:39:27.999Z,15.32
2022-12-20T14:44:32.271Z,14.13
2022-12-20T14:49:38.288Z,13.57
2022-12-20T14:55:08.774Z,16.00
2022-12-20T15:00:18.327Z,15.32
2022-12-20T15:05:41.369Z,16.38
2022-12-20T15:10:53.740Z,14.27
2022-12-20T15:15:58.478Z,14.13
2022-12-20T15:21:14.560Z,13.40
2022-12-20T15:26:19.834Z,12.98
2022-12-20T15:31:33.084Z,13.73
2022-12-20T15:36:36.591Z,14.83
2022-12-20T15:41:42.977Z,16.77
2022-12-20T15:46:45.876Z,14.73
2022-12-20T15:51:51.162Z,15.38
2022-12-20T15:56:55.017Z,17.73
2022-12-20T16:01:57.926Z,16.83
2022-12-20T16:07:00.597Z,15.25
2022-12-20T16:12:03.809Z,14.83
2022-12-20T16:17:06.515Z,12.93
2022-12-20T16:22:16.359Z,15.40
2022-12-20T16:27:19.558Z,15.70
2022-12-20T16:32:22.299Z,18.92
2022-12-20T16:37:25.047Z,18.47
2022-12-20T16:42:27.771Z,16.20
2022-12-20T16:47:30.610Z,15.85
2022-12-20T16:52:37.174Z,14.27
2022-12-20T16:57:40.076Z,16.45
2022-12-20T17:02:43.099Z,14.73
2022-12-20T17:07:45.903Z,13.75
2022-12-20T17:12:48.823Z,18.17
2022-12-20T17:17:52.097Z,18.90
2022-12-20T17:22:56.100Z,19.25
2022-12-20T17:27:59.025Z,20.77
2022-12-20T17:33:02.544Z,24.17
2022-12-20T17:38:07.841Z,21.67
2022-12-20T17:43:14.287Z,20.47
2022-12-20T17:48:17.033Z,22.48
2022-12-20T17:53:19.697Z,17.63
2022-12-20T17:58:22.399Z,21.38
2022-12-20T18:04:01.595Z,18.38
2022-12-20T18:08:55.691Z,22.77
2022-12-20T18:13:59.573Z,20.92
2022-12-20T18:19:02.878Z,23.07
2022-12-20T18:24:05.747Z,24.55
2022-12-20T18:29:08.529Z,26.35
2022-12-20T18:34:11.207Z,21.70
2022-12-20T18:39:14.365Z,13.77
2022-12-20T18:44:17.038Z,19.93
2022-12-20T18:49:19.866Z,19.17
2022-12-20T18:54:22.430Z,21.48
2022-12-20T18:59:25.147Z,19.37
2022-12-20T19:04:27.932Z,19.80
2022-12-20T19:09:30.680Z,22.63
2022-12-20T19:14:33.310Z,18.88
2022-12-20T19:19:35.958Z,21.48
2022-12-20T19:24:38.599Z,20.40
2022-12-20T19:29:41.442Z,24.73
2022-12-20T19:34:44.170Z,22.03
2022-12-20T19:39:46.770Z,22.75
2022-12-20T19:44:49.364Z,22.17
2022-12-20T19:49:52.394Z,22.27
2022-12-20T19:55:01.358Z,22.33
2022-12-20T20:00:05.949Z,20.83
2022-12-20T20:05:15.353Z,20.98
2022-12-20T20:10:18.934Z,21.27
2022-12-20T20:15:21.730Z,17.73
2022-12-20T20:20:24.338Z,17.02
2022-12-20T20:25:27.053Z,20.03
2022-12-20T20:30:30.057Z,19.45
2022-12-20T20:35:32.920Z,18.58
2022-12-20T20:40:35.665Z,14.20
2022-12-20T20:45:38.354Z,17.95
2022-12-20T20:50:41.448Z,16.90
2022-12-20T20:55:44.716Z,17.70
2022-12-20T21:01:01.822Z,16.23
2022-12-20T21:06:38.638Z,15.83
2022-12-20T21:11:30.623Z,16.50
2022-12-20T21:16:33.489Z,17.97
2022-12-20T21:21:36.233Z,15.82
2022-12-20T21:26:38.937Z,15.68
2022-12-20T21:31:41.705Z,14.10
2022-12-20T21:36:44.625Z,16.58
2022-12-20T21:41:47.279Z,13.77
2022-12-20T21:46:50.037Z,16.85
2022-12-20T21:51:56.691Z,15.45
2022-12-20T21:56:59.416Z,15.00
2022-12-20T22:02:02.205Z,14.95
2022-12-20T22:07:05.067Z,14.73
2022-12-20T22:12:07.626Z,14.52
2022-12-20T22:17:10.215Z,12.77
2022-12-20T22:22:12.785Z,11.03
2022-12-20T22:27:15.364Z,13.05
2022-12-20T22:32:18.176Z,12.40
2022-12-20T22:37:20.831Z,10.13
2022-12-20T22:42:23.527Z,14.50
2022-12-20T22:47:26.117Z,11.53
2022-12-20T22:52:28.683Z,11.57
2022-12-20T22:57:32.951Z,13.93
2022-12-20T23:02:35.741Z,11.45
2022-12-20T23:07:38.436Z,12.55
2022-12-20T23:13:01.222Z,10.60
2022-12-20T23:18:03.820Z,14.43
2022-12-20T23:23:08.801Z,13.20
2022-12-20T23:28:11.380Z,10.75
2022-12-20T23:33:13.970Z,12.80
2022-12-20T23:38:16.523Z,11.03
2022-12-20T23:43:19.590Z,11.68
2022-12-20T23:48:22.288Z,13.00
2022-12-20T23:53:24.805Z,11.93
2022-12-20T23:58:27.549Z,13.18
